sensor_id;sensor_type;location;lat;lon;timestamp;P1;durP1;ratioP1;P2;durP2;ratioP2
11572;SDS011;5842;52.426;4.886;2023-01-25T01:03:59;54.90;;;27.07;;
11572;SDS011;5842;52.426;4.886;2023-01-25T01:06:28;55.47;;;27.83;;
11572;SDS011;5842;52.426;4.886;2023-01-25T01:09:00;59.77;;;28.73;;
11572;SDS011;5842;52.426;4.886;2023-01-25T01:12:07;57.77;;;28.23;;
11572;SDS011;5842;52.426;4.886;2023-01-25T01:25:42;55.03;;;26.50;;
11572;SDS011;5842;52.426;4.886;2023-01-25T01:35:34;59.67;;;28.60;;
11572;SDS011;5842;52.426;4.886;2023-01-25T04:36:43;66.63;;;29.67;;
11572;SDS011;5842;52.426;4.886;2023-01-25T04:43:32;65.27;;;28.83;;
11572;SDS011;5842;52.426;4.886;2023-01-25T07:45:47;74.57;;;36.10;;
11572;SDS011;5842;52.426;4.886;2023-01-25T07:48:48;73.35;;;37.70;;
11572;SDS011;5842;52.426;4.886;2023-01-25T07:51:16;65.17;;;29.23;;
11572;SDS011;5842;52.426;4.886;2023-01-25T07:53:52;63.00;;;28.63;;
11572;SDS011;5842;52.426;4.886;2023-01-25T07:56:25;62.23;;;28.03;;
11572;SDS011;5842;52.426;4.886;2023-01-25T07:58:53;63.77;;;29.47;;
11572;SDS011;5842;52.426;4.886;2023-01-25T08:01:24;64.40;;;29.80;;
11572;SDS011;5842;52.426;4.886;2023-01-25T08:03:59;63.47;;;27.33;;
11572;SDS011;5842;52.426;4.886;2023-01-25T08:06:29;66.50;;;28.33;;
11572;SDS011;5842;52.426;4.886;2023-01-25T08:09:00;68.73;;;30.20;;
11572;SDS011;5842;52.426;4.886;2023-01-25T08:11:29;66.93;;;28.70;;
11572;SDS011;5842;52.426;4.886;2023-01-25T08:13:58;65.90;;;29.40;;
11572;SDS011;5842;52.426;4.886;2023-01-25T08:16:30;66.70;;;29.30;;
11572;SDS011;5842;52.426;4.886;2023-01-25T08:18:59;65.43;;;29.67;;
11572;SDS011;5842;52.426;4.886;2023-01-25T08:21:29;61.37;;;28.03;;
11572;SDS011;5842;52.426;4.886;2023-01-25T08:24:04;65.93;;;28.37;;
11572;SDS011;5842;52.426;4.886;2023-01-25T08:26:46;63.57;;;28.63;;
11572;SDS011;5842;52.426;4.886;2023-01-25T08:29:13;61.87;;;26.90;;
11572;SDS011;5842;52.426;4.886;2023-01-25T08:31:51;62.97;;;27.60;;
11572;SDS011;5842;52.426;4.886;2023-01-25T08:34:19;60.10;;;25.80;;
11572;SDS011;5842;52.426;4.886;2023-01-25T08:36:48;58.13;;;25.17;;
11572;SDS011;5842;52.426;4.886;2023-01-25T08:39:35;58.80;;;26.70;;
11572;SDS011;5842;52.426;4.886;2023-01-25T08:42:24;56.57;;;26.23;;
11572;SDS011;5842;52.426;4.886;2023-01-25T08:45:06;61.67;;;26.87;;
11572;SDS011;5842;52.426;4.886;2023-01-25T08:47:35;60.07;;;27.17;;
11572;SDS011;5842;52.426;4.886;2023-01-25T08:50:02;54.00;;;24.90;;
11572;SDS011;5842;52.426;4.886;2023-01-25T08:52:32;60.30;;;26.90;;
11572;SDS011;5842;52.426;4.886;2023-01-25T08:54:59;58.93;;;26.73;;
11572;SDS011;5842;52.426;4.886;2023-01-25T08:57:26;59.43;;;25.53;;
11572;SDS011;5842;52.426;4.886;2023-01-25T08:59:55;63.67;;;27.23;;
11572;SDS011;5842;52.426;4.886;2023-01-25T09:02:23;55.63;;;26.10;;
11572;SDS011;5842;52.426;4.886;2023-01-25T09:05:24;59.20;;;27.03;;
11572;SDS011;5842;52.426;4.886;2023-01-25T09:08:07;66.77;;;28.30;;
11572;SDS011;5842;52.426;4.886;2023-01-25T09:10:41;59.47;;;26.70;;
11572;SDS011;5842;52.426;4.886;2023-01-25T09:13:11;61.13;;;26.60;;
11572;SDS011;5842;52.426;4.886;2023-01-25T09:15:48;64.80;;;28.47;;
11572;SDS011;5842;52.426;4.886;2023-01-25T09:18:25;62.37;;;27.60;;
11572;SDS011;5842;52.426;4.886;2023-01-25T09:23:58;64.33;;;27.50;;
11572;SDS011;5842;52.426;4.886;2023-01-25T09:26:35;59.87;;;27.07;;
11572;SDS011;5842;52.426;4.886;2023-01-25T09:29:15;63.67;;;28.27;;
11572;SDS011;5842;52.426;4.886;2023-01-25T09:31:52;60.13;;;27.13;;
11572;SDS011;5842;52.426;4.886;2023-01-25T09:34:30;60.47;;;27.83;;
11572;SDS011;5842;52.426;4.886;2023-01-25T09:37:16;59.43;;;26.87;;
11572;SDS011;5842;52.426;4.886;2023-01-25T09:39:53;58.30;;;27.00;;
11572;SDS011;5842;52.426;4.886;2023-01-25T09:42:31;66.30;;;29.70;;
11572;SDS011;5842;52.426;4.886;2023-01-25T09:45:24;63.23;;;26.93;;
11572;SDS011;5842;52.426;4.886;2023-01-25T09:48:11;58.83;;;26.37;;
11572;SDS011;5842;52.426;4.886;2023-01-25T09:51:15;62.27;;;28.87;;
11572;SDS011;5842;52.426;4.886;2023-01-25T09:54:14;63.20;;;28.43;;
11572;SDS011;5842;52.426;4.886;2023-01-25T09:56:54;60.87;;;26.37;;
11572;SDS011;5842;52.426;4.886;2023-01-25T09:59:31;63.30;;;28.83;;
11572;SDS011;5842;52.426;4.886;2023-01-25T10:02:15;58.87;;;26.97;;
11572;SDS011;5842;52.426;4.886;2023-01-25T10:05:05;62.13;;;26.80;;
11572;SDS011;5842;52.426;4.886;2023-01-25T10:07:47;62.37;;;27.17;;
11572;SDS011;5842;52.426;4.886;2023-01-25T12:09:45;65.90;;;30.87;;
11572;SDS011;5842;52.426;4.886;2023-01-25T12:25:39;70.90;;;31.80;;
11572;SDS011;5842;52.426;4.886;2023-01-25T12:33:07;66.50;;;31.47;;
11572;SDS011;5842;52.426;4.886;2023-01-25T12:35:52;75.87;;;30.80;;
11572;SDS011;5842;52.426;4.886;2023-01-25T12:38:26;69.20;;;31.50;;
11572;SDS011;5842;52.426;4.886;2023-01-25T12:41:49;69.40;;;30.83;;
11572;SDS011;5842;52.426;4.886;2023-01-25T12:45:04;69.67;;;31.13;;
11572;SDS011;5842;52.426;4.886;2023-01-25T12:48:00;70.53;;;31.33;;
11572;SDS011;5842;52.426;4.886;2023-01-25T12:50:48;69.90;;;32.73;;
11572;SDS011;5842;52.426;4.886;2023-01-25T12:53:47;67.40;;;30.83;;
11572;SDS011;5842;52.426;4.886;2023-01-25T12:56:26;68.67;;;32.70;;
11572;SDS011;5842;52.426;4.886;2023-01-25T12:59:02;70.60;;;32.63;;
11572;SDS011;5842;52.426;4.886;2023-01-25T13:01:42;73.23;;;32.90;;
11572;SDS011;5842;52.426;4.886;2023-01-25T13:45:15;70.57;;;32.87;;
11572;SDS011;5842;52.426;4.886;2023-01-25T13:48:33;73.97;;;33.63;;
11572;SDS011;5842;52.426;4.886;2023-01-25T14:02:05;71.53;;;33.07;;
11572;SDS011;5842;52.426;4.886;2023-01-25T14:08:46;72.50;;;33.00;;
11572;SDS011;5842;52.426;4.886;2023-01-25T15:09:58;67.23;;;29.93;;
11572;SDS011;5842;52.426;4.886;2023-01-25T15:12:31;69.17;;;29.60;;
11572;SDS011;5842;52.426;4.886;2023-01-25T15:14:58;67.20;;;30.60;;
11572;SDS011;5842;52.426;4.886;2023-01-25T15:20:40;69.03;;;30.03;;
11572;SDS011;5842;52.426;4.886;2023-01-25T15:24:02;75.37;;;31.97;;
11572;SDS011;5842;52.426;4.886;2023-01-25T15:27:08;70.53;;;30.60;;
11572;SDS011;5842;52.426;4.886;2023-01-25T15:30:16;75.07;;;30.90;;
11572;SDS011;5842;52.426;4.886;2023-01-25T15:33:41;69.27;;;31.13;;
11572;SDS011;5842;52.426;4.886;2023-01-25T15:50:08;80.27;;;32.53;;
11572;SDS011;5842;52.426;4.886;2023-01-25T15:52:56;80.87;;;32.70;;
11572;SDS011;5842;52.426;4.886;2023-01-25T15:56:39;76.53;;;31.67;;
11572;SDS011;5842;52.426;4.886;2023-01-25T15:58:52;83.03;;;33.23;;
11572;SDS011;5842;52.426;4.886;2023-01-25T16:01:35;72.37;;;31.70;;
11572;SDS011;5842;52.426;4.886;2023-01-25T16:04:16;80.77;;;33.13;;
11572;SDS011;5842;52.426;4.886;2023-01-25T16:10:58;78.37;;;32.37;;
11572;SDS011;5842;52.426;4.886;2023-01-25T16:27:11;76.40;;;32.83;;
11572;SDS011;5842;52.426;4.886;2023-01-25T16:29:44;88.37;;;35.27;;
11572;SDS011;5842;52.426;4.886;2023-01-25T16:32:13;82.87;;;33.17;;
11572;SDS011;5842;52.426;4.886;2023-01-25T16:34:40;77.77;;;33.33;;
11572;SDS011;5842;52.426;4.886;2023-01-25T16:37:18;82.50;;;33.33;;
11572;SDS011;5842;52.426;4.886;2023-01-25T16:39:59;74.10;;;32.17;;
11572;SDS011;5842;52.426;4.886;2023-01-25T16:45:32;79.60;;;33.03;;
11572;SDS011;5842;52.426;4.886;2023-01-25T16:48:34;78.97;;;31.70;;
11572;SDS011;5842;52.426;4.886;2023-01-25T16:51:02;74.13;;;31.47;;
11572;SDS011;5842;52.426;4.886;2023-01-25T16:53:31;73.73;;;31.70;;
11572;SDS011;5842;52.426;4.886;2023-01-25T16:56:00;81.60;;;33.30;;
11572;SDS011;5842;52.426;4.886;2023-01-25T17:08:55;69.37;;;30.60;;
11572;SDS011;5842;52.426;4.886;2023-01-25T17:11:23;71.13;;;31.30;;
11572;SDS011;5842;52.426;4.886;2023-01-25T17:13:53;77.67;;;31.10;;
11572;SDS011;5842;52.426;4.886;2023-01-25T17:16:23;79.03;;;33.10;;
11572;SDS011;5842;52.426;4.886;2023-01-25T17:18:52;77.50;;;31.90;;
11572;SDS011;5842;52.426;4.886;2023-01-25T17:21:25;75.80;;;31.73;;
11572;SDS011;5842;52.426;4.886;2023-01-25T18:20:13;84.20;;;31.87;;
11572;SDS011;5842;52.426;4.886;2023-01-25T18:27:51;87.97;;;32.63;;
11572;SDS011;5842;52.426;4.886;2023-01-25T18:33:19;83.80;;;31.50;;
11572;SDS011;5842;52.426;4.886;2023-01-25T19:03:15;93.13;;;34.17;;
11572;SDS011;5842;52.426;4.886;2023-01-25T19:05:49;91.73;;;34.13;;
11572;SDS011;5842;52.426;4.886;2023-01-25T19:08:20;98.93;;;35.27;;
11572;SDS011;5842;52.426;4.886;2023-01-25T19:10:56;100.67;;;37.93;;
11572;SDS011;5842;52.426;4.886;2023-01-25T19:13:27;94.37;;;36.63;;
11572;SDS011;5842;52.426;4.886;2023-01-25T19:16:00;96.30;;;35.60;;
11572;SDS011;5842;52.426;4.886;2023-01-25T19:18:45;104.27;;;38.20;;
11572;SDS011;5842;52.426;4.886;2023-01-25T19:21:17;104.53;;;38.57;;
11572;SDS011;5842;52.426;4.886;2023-01-25T19:23:48;108.13;;;37.60;;
11572;SDS011;5842;52.426;4.886;2023-01-25T19:26:17;98.53;;;36.70;;
11572;SDS011;5842;52.426;4.886;2023-01-25T19:28:51;100.63;;;36.93;;
11572;SDS011;5842;52.426;4.886;2023-01-25T19:31:22;104.53;;;37.43;;
11572;SDS011;5842;52.426;4.886;2023-01-25T19:34:02;100.40;;;37.27;;
11572;SDS011;5842;52.426;4.886;2023-01-25T19:36:32;100.07;;;36.60;;
11572;SDS011;5842;52.426;4.886;2023-01-25T19:39:10;104.33;;;38.07;;
11572;SDS011;5842;52.426;4.886;2023-01-25T19:41:37;99.10;;;35.67;;
11572;SDS011;5842;52.426;4.886;2023-01-25T19:44:04;100.23;;;37.10;;
11572;SDS011;5842;52.426;4.886;2023-01-25T19:46:33;102.77;;;38.40;;
11572;SDS011;5842;52.426;4.886;2023-01-25T19:49:03;104.10;;;38.43;;
11572;SDS011;5842;52.426;4.886;2023-01-25T19:51:35;103.53;;;37.40;;
11572;SDS011;5842;52.426;4.886;2023-01-25T19:56:13;108.23;;;39.13;;
11572;SDS011;5842;52.426;4.886;2023-01-25T19:58:03;115.17;;;40.30;;
11572;SDS011;5842;52.426;4.886;2023-01-25T20:00:43;118.53;;;40.80;;
11572;SDS011;5842;52.426;4.886;2023-01-25T20:13:36;119.03;;;40.67;;
11572;SDS011;5842;52.426;4.886;2023-01-25T20:16:13;120.37;;;43.07;;
11572;SDS011;5842;52.426;4.886;2023-01-25T20:18:49;119.03;;;42.37;;
11572;SDS011;5842;52.426;4.886;2023-01-25T20:21:17;125.33;;;43.17;;
11572;SDS011;5842;52.426;4.886;2023-01-25T20:23:46;128.97;;;42.73;;
11572;SDS011;5842;52.426;4.886;2023-01-25T20:26:15;123.53;;;42.63;;
11572;SDS011;5842;52.426;4.886;2023-01-25T20:31:55;135.13;;;44.17;;
11572;SDS011;5842;52.426;4.886;2023-01-25T20:34:22;134.60;;;45.33;;
11572;SDS011;5842;52.426;4.886;2023-01-25T20:37:09;132.87;;;42.80;;
11572;SDS011;5842;52.426;4.886;2023-01-25T20:54:05;132.07;;;43.40;;
11572;SDS011;5842;52.426;4.886;2023-01-25T20:56:59;117.53;;;39.93;;
11572;SDS011;5842;52.426;4.886;2023-01-25T21:16:48;108.53;;;36.70;;
11572;SDS011;5842;52.426;4.886;2023-01-25T21:22:50;90.47;;;33.03;;
11572;SDS011;5842;52.426;4.886;2023-01-25T21:25:26;96.20;;;34.20;;
11572;SDS011;5842;52.426;4.886;2023-01-25T21:27:53;96.33;;;32.53;;
11572;SDS011;5842;52.426;4.886;2023-01-25T21:30:23;84.83;;;32.10;;
11572;SDS011;5842;52.426;4.886;2023-01-25T21:32:52;95.87;;;33.03;;
11572;SDS011;5842;52.426;4.886;2023-01-25T21:35:19;85.93;;;31.93;;
11572;SDS011;5842;52.426;4.886;2023-01-25T21:37:47;83.87;;;31.27;;
11572;SDS011;5842;52.426;4.886;2023-01-25T21:40:14;82.70;;;30.77;;
11572;SDS011;5842;52.426;4.886;2023-01-25T21:42:42;84.73;;;31.33;;
11572;SDS011;5842;52.426;4.886;2023-01-25T21:45:10;90.23;;;31.83;;
11572;SDS011;5842;52.426;4.886;2023-01-25T21:55:08;80.87;;;29.73;;
11572;SDS011;5842;52.426;4.886;2023-01-25T21:57:49;80.23;;;28.83;;
11572;SDS011;5842;52.426;4.886;2023-01-25T22:00:30;79.37;;;28.27;;
11572;SDS011;5842;52.426;4.886;2023-01-25T22:16:08;78.20;;;28.40;;
11572;SDS011;5842;52.426;4.886;2023-01-25T22:22:29;76.03;;;28.13;;
11572;SDS011;5842;52.426;4.886;2023-01-25T22:24:59;71.53;;;26.30;;
11572;SDS011;5842;52.426;4.886;2023-01-25T22:27:35;73.43;;;27.00;;
11572;SDS011;5842;52.426;4.886;2023-01-25T22:30:20;83.83;;;28.57;;
11572;SDS011;5842;52.426;4.886;2023-01-25T22:32:47;75.23;;;25.83;;
11572;SDS011;5842;52.426;4.886;2023-01-25T22:35:16;70.97;;;25.10;;
11572;SDS011;5842;52.426;4.886;2023-01-25T22:37:43;67.27;;;26.13;;
11572;SDS011;5842;52.426;4.886;2023-01-25T22:40:10;71.37;;;26.20;;
11572;SDS011;5842;52.426;4.886;2023-01-25T22:42:42;66.10;;;24.83;;
11572;SDS011;5842;52.426;4.886;2023-01-25T22:45:15;71.77;;;25.30;;
11572;SDS011;5842;52.426;4.886;2023-01-25T22:47:42;70.17;;;25.00;;
11572;SDS011;5842;52.426;4.886;2023-01-25T22:50:13;63.57;;;24.57;;
11572;SDS011;5842;52.426;4.886;2023-01-25T22:52:40;64.07;;;24.07;;
11572;SDS011;5842;52.426;4.886;2023-01-25T22:55:13;74.60;;;26.93;;
11572;SDS011;5842;52.426;4.886;2023-01-25T22:57:41;68.43;;;24.63;;
11572;SDS011;5842;52.426;4.886;2023-01-25T23:00:37;69.37;;;25.40;;
11572;SDS011;5842;52.426;4.886;2023-01-25T23:03:14;63.97;;;24.43;;
11572;SDS011;5842;52.426;4.886;2023-01-25T23:05:41;66.27;;;25.17;;
11572;SDS011;5842;52.426;4.886;2023-01-25T23:08:10;69.60;;;25.27;;
11572;SDS011;5842;52.426;4.886;2023-01-25T23:10:48;64.60;;;25.70;;
11572;SDS011;5842;52.426;4.886;2023-01-25T23:13:17;72.90;;;27.53;;
11572;SDS011;5842;52.426;4.886;2023-01-25T23:15:45;73.97;;;27.60;;
11572;SDS011;5842;52.426;4.886;2023-01-25T23:18:13;70.30;;;26.50;;
11572;SDS011;5842;52.426;4.886;2023-01-25T23:21:00;72.97;;;26.43;;
11572;SDS011;5842;52.426;4.886;2023-01-25T23:23:37;71.23;;;25.50;;
11572;SDS011;5842;52.426;4.886;2023-01-25T23:26:24;64.87;;;24.27;;
11572;SDS011;5842;52.426;4.886;2023-01-25T23:29:10;68.40;;;25.50;;
11572;SDS011;5842;52.426;4.886;2023-01-25T23:31:39;67.80;;;25.00;;
11572;SDS011;5842;52.426;4.886;2023-01-25T23:34:09;71.43;;;25.67;;
11572;SDS011;5842;52.426;4.886;2023-01-25T23:36:56;70.80;;;25.07;;
11572;SDS011;5842;52.426;4.886;2023-01-25T23:40:21;71.03;;;25.60;;
11572;SDS011;5842;52.426;4.886;2023-01-25T23:43:11;68.77;;;24.63;;
11572;SDS011;5842;52.426;4.886;2023-01-25T23:45:59;65.07;;;24.47;;
11572;SDS011;5842;52.426;4.886;2023-01-25T23:48:46;64.70;;;24.20;;
11572;SDS011;5842;52.426;4.886;2023-01-25T23:54:35;64.07;;;22.83;;
11572;SDS011;5842;52.426;4.886;2023-01-25T23:57:16;61.53;;;22.30;;
